createdAt,value
2023-01-12T00:01:58.652Z,5.70
2023-01-12T00:04:26.971Z,6.20
2023-01-12T00:06:55.153Z,9.10
2023-01-12T00:09:23.226Z,6.00
2023-01-12T00:11:51.609Z,5.90
2023-01-12T00:14:19.879Z,5.20
2023-01-12T00:16:47.880Z,6.70
2023-01-12T00:19:37.043Z,6.10
2023-01-12T00:22:12.488Z,4.90
2023-01-12T00:24:44.172Z,5.40
2023-01-12T00:27:15.750Z,6.60
2023-01-12T00:29:44.410Z,7.60
2023-01-12T00:32:24.621Z,6.70
2023-01-12T00:35:13.386Z,4.40
2023-01-12T00:37:41.437Z,7.10
2023-01-12T00:40:10.533Z,4.70
2023-01-12T00:43:15.690Z,7.60
2023-01-12T00:45:43.706Z,6.00
2023-01-12T00:48:12.837Z,6.70
2023-01-12T00:50:40.911Z,5.60
2023-01-12T00:53:08.980Z,5.00
2023-01-12T00:55:37.220Z,5.40
2023-01-12T00:58:05.739Z,8.20
2023-01-12T01:00:33.809Z,5.30
2023-01-12T01:03:02.041Z,7.50
2023-01-12T01:05:48.734Z,6.80
2023-01-12T01:08:17.375Z,8.50
2023-01-12T01:10:46.881Z,9.80
2023-01-12T01:13:14.869Z,8.20
2023-01-12T01:15:47.223Z,7.80
2023-01-12T01:18:15.599Z,7.90
2023-01-12T01:20:47.160Z,6.70
2023-01-12T01:23:15.227Z,7.30
2023-01-12T01:25:43.297Z,10.80
2023-01-12T01:28:30.233Z,8.10
2023-01-12T01:31:07.251Z,7.80
2023-01-12T01:33:37.403Z,7.90
2023-01-12T01:36:06.080Z,7.80
2023-01-12T01:38:34.577Z,13.00
2023-01-12T01:41:03.403Z,7.70
2023-01-12T01:44:06.593Z,8.00
2023-01-12T01:46:44.276Z,11.80
2023-01-12T01:49:33.112Z,9.30
2023-01-12T01:52:05.360Z,9.70
2023-01-12T01:54:42.976Z,12.30
2023-01-12T01:57:13.304Z,10.00
2023-01-12T01:59:47.413Z,13.00
2023-01-12T02:02:35.431Z,9.20
2023-01-12T02:05:03.938Z,11.20
2023-01-12T02:07:33.856Z,11.90
2023-01-12T02:10:02.640Z,10.00
2023-01-12T02:12:49.550Z,10.90
2023-01-12T02:15:37.296Z,8.80
2023-01-12T02:18:20.815Z,11.10
2023-01-12T02:20:57.755Z,7.60
2023-01-12T02:23:49.521Z,14.00
2023-01-12T02:26:37.148Z,14.30
2023-01-12T02:29:28.654Z,14.10
2023-01-12T02:32:19.768Z,10.10
2023-01-12T02:35:10.884Z,11.40
2023-01-12T02:38:10.506Z,10.00
2023-01-12T02:40:59.542Z,11.30
2023-01-12T02:43:30.368Z,12.30
2023-01-12T02:46:13.274Z,12.40
2023-01-12T02:48:59.927Z,12.30
2023-01-12T02:51:34.414Z,10.20
2023-01-12T02:54:11.107Z,13.90
2023-01-12T02:56:46.273Z,13.30
2023-01-12T02:59:21.912Z,9.80
2023-01-12T03:01:59.707Z,12.50
2023-01-12T03:04:30.297Z,10.90
2023-01-12T03:06:58.477Z,10.90
2023-01-12T03:09:45.569Z,14.30
2023-01-12T03:12:20.424Z,11.00
2023-01-12T03:14:51.600Z,12.80
2023-01-12T03:17:32.060Z,9.70
2023-01-12T03:20:24.606Z,11.10
2023-01-12T03:22:58.709Z,11.70
2023-01-12T03:25:31.509Z,9.40
2023-01-12T03:28:03.824Z,9.00
2023-01-12T03:30:37.795Z,13.10
2023-01-12T03:33:07.629Z,10.00
2023-01-12T03:35:41.105Z,15.00
2023-01-12T03:38:24.533Z,8.70
2023-01-12T03:41:08.921Z,9.80
2023-01-12T03:44:05.111Z,15.20
2023-01-12T03:46:54.630Z,11.70
2023-01-12T03:49:33.721Z,10.80
2023-01-12T03:52:22.575Z,13.00
2023-01-12T03:54:54.059Z,12.30
2023-01-12T03:57:22.812Z,12.30
2023-01-12T03:59:50.997Z,9.80
2023-01-12T04:02:37.617Z,14.90
2023-01-12T04:05:08.539Z,12.30
2023-01-12T04:07:36.699Z,9.40
2023-01-12T04:10:05.569Z,12.30
2023-01-12T04:12:33.667Z,12.20
2023-01-12T04:15:20.603Z,11.30
2023-01-12T04:17:48.653Z,11.90
2023-01-12T04:20:16.731Z,14.20
2023-01-12T04:22:49.604Z,9.50
2023-01-12T04:25:36.483Z,12.90
2023-01-12T04:28:04.999Z,13.10
2023-01-12T04:30:51.887Z,12.40
2023-01-12T04:33:20.099Z,13.90
2023-01-12T04:35:48.121Z,12.00
2023-01-12T04:38:18.192Z,13.90
2023-01-12T04:40:46.446Z,12.30
2023-01-12T04:43:14.418Z,10.70
2023-01-12T04:45:43.802Z,17.20
2023-01-12T04:48:30.732Z,18.50
2023-01-12T04:51:00.912Z,9.60
2023-01-12T04:53:48.401Z,14.70
2023-01-12T04:56:16.555Z,11.10
2023-01-12T04:58:44.935Z,11.90
2023-01-12T05:01:16.445Z,13.80
2023-01-12T05:03:45.631Z,13.20
2023-01-12T05:06:13.947Z,15.70
2023-01-12T05:09:01.231Z,14.20
2023-01-12T05:11:29.797Z,12.60
2023-01-12T05:13:58.069Z,12.50
2023-01-12T05:16:26.243Z,15.70
2023-01-12T05:19:13.430Z,15.50
2023-01-12T05:21:41.437Z,12.40
2023-01-12T05:24:09.572Z,9.20
2023-01-12T05:26:37.770Z,12.90
2023-01-12T05:29:05.921Z,17.20
2023-01-12T05:31:35.123Z,16.50
2023-01-12T05:34:03.493Z,19.20
2023-01-12T05:36:31.804Z,15.10
2023-01-12T05:39:19.720Z,13.10
2023-01-12T05:42:10.648Z,20.00
2023-01-12T05:44:38.732Z,13.10
2023-01-12T05:47:06.859Z,14.40
2023-01-12T05:49:34.844Z,12.40
2023-01-12T05:52:03.202Z,18.70
2023-01-12T05:54:31.891Z,10.30
2023-01-12T05:57:00.064Z,14.70
2023-01-12T05:59:28.240Z,15.70
2023-01-12T06:01:56.237Z,14.40
2023-01-12T06:04:25.438Z,15.20
2023-01-12T06:07:16.520Z,10.20
2023-01-12T06:09:44.689Z,15.60
2023-01-12T06:12:41.961Z,15.50
2023-01-12T06:15:10.428Z,16.40
2023-01-12T06:17:38.495Z,13.10
2023-01-12T06:20:07.710Z,15.20
2023-01-12T06:22:36.095Z,12.00
2023-01-12T06:25:04.669Z,12.40
2023-01-12T06:27:39.571Z,11.70
2023-01-12T06:30:12.576Z,17.90
2023-01-12T06:32:41.885Z,16.30
2023-01-12T06:35:18.663Z,12.70
2023-01-12T06:37:48.061Z,14.60
2023-01-12T06:40:16.630Z,20.70
2023-01-12T06:42:44.707Z,18.20
2023-01-12T06:45:13.080Z,10.70
2023-01-12T06:47:49.561Z,11.70
2023-01-12T06:50:17.984Z,15.00
2023-01-12T06:52:46.109Z,18.90
2023-01-12T06:55:16.417Z,13.50
2023-01-12T06:58:04.771Z,15.30
2023-01-12T07:00:33.070Z,14.20
2023-01-12T07:03:20.589Z,14.00
2023-01-12T07:05:48.656Z,15.80
2023-01-12T07:08:19.290Z,15.40
2023-01-12T07:10:47.660Z,15.90
2023-01-12T07:13:15.647Z,14.90
2023-01-12T07:15:44.157Z,15.20
2023-01-12T07:18:12.590Z,14.70
2023-01-12T07:20:40.594Z,14.20
2023-01-12T07:23:27.268Z,15.10
2023-01-12T07:25:57.797Z,14.30
2023-01-12T07:28:25.887Z,12.40
2023-01-12T07:30:59.411Z,12.80
2023-01-12T07:33:27.641Z,16.40
2023-01-12T07:36:00.024Z,13.30
2023-01-12T07:41:02.869Z,22.80
2023-01-12T07:43:33.781Z,15.20
2023-01-12T07:46:02.135Z,19.60
2023-01-12T07:48:49.040Z,16.10
2023-01-12T07:51:17.835Z,18.40
2023-01-12T07:53:48.253Z,15.70
2023-01-12T07:56:16.533Z,14.80
2023-01-12T07:58:47.978Z,14.10
2023-01-12T08:01:16.741Z,17.50
2023-01-12T08:03:45.569Z,13.00
2023-01-12T08:06:13.738Z,13.20
2023-01-12T08:09:00.998Z,11.80
2023-01-12T08:11:47.398Z,14.70
2023-01-12T08:14:33.752Z,12.40
2023-01-12T08:17:02.595Z,12.20
2023-01-12T08:19:55.785Z,10.20
2023-01-12T08:22:30.349Z,12.50
2023-01-12T08:25:09.209Z,12.30
2023-01-12T08:27:41.111Z,9.60
2023-01-12T08:30:10.186Z,13.70
2023-01-12T08:32:39.066Z,11.10
2023-01-12T08:35:08.293Z,9.80
2023-01-12T08:37:39.745Z,11.70
2023-01-12T08:40:08.983Z,9.40
2023-01-12T08:42:37.101Z,10.10
2023-01-12T08:45:09.396Z,12.40
2023-01-12T08:47:38.123Z,11.00
2023-01-12T08:50:07.568Z,9.80
2023-01-12T08:52:36.056Z,13.90
2023-01-12T08:55:04.605Z,9.70
2023-01-12T08:57:32.906Z,11.90
2023-01-12T09:00:01.094Z,8.80
2023-01-12T09:02:29.915Z,10.20
2023-01-12T09:04:58.156Z,10.50
2023-01-12T09:07:26.432Z,11.30
2023-01-12T09:09:54.497Z,10.10
2023-01-12T09:12:24.464Z,10.80
2023-01-12T09:14:54.184Z,11.00
2023-01-12T09:17:23.226Z,12.70
2023-01-12T09:19:51.625Z,8.70
2023-01-12T09:22:19.771Z,9.90
2023-01-12T09:24:48.055Z,12.80
2023-01-12T09:27:16.426Z,8.90
2023-01-12T09:29:44.496Z,9.50
2023-01-12T09:32:12.679Z,7.60
2023-01-12T09:34:41.019Z,10.20
2023-01-12T09:37:09.227Z,11.70
2023-01-12T09:39:56.266Z,12.30
2023-01-12T09:43:09.170Z,11.30
2023-01-12T09:45:56.113Z,9.00
2023-01-12T09:48:25.514Z,9.30
2023-01-12T09:51:10.031Z,9.60
2023-01-12T09:53:40.561Z,10.70
2023-01-12T09:56:08.641Z,10.20
2023-01-12T09:59:08.345Z,13.00
2023-01-12T10:01:59.475Z,14.40
2023-01-12T10:04:32.161Z,10.50
2023-01-12T10:07:00.360Z,14.30
2023-01-12T10:09:28.999Z,16.20
2023-01-12T10:12:29.532Z,12.10
2023-01-12T10:14:58.106Z,14.00
2023-01-12T10:17:41.992Z,14.70
2023-01-12T10:20:34.102Z,13.90
2023-01-12T10:23:12.502Z,13.20
2023-01-12T10:25:45.964Z,12.40
2023-01-12T10:28:25.896Z,10.80
2023-01-12T10:30:56.424Z,12.00
2023-01-12T10:33:27.644Z,12.90
2023-01-12T10:36:00.815Z,11.30
2023-01-12T10:38:36.567Z,13.10
2023-01-12T10:41:10.578Z,13.90
2023-01-12T10:43:42.561Z,10.30
2023-01-12T10:46:19.651Z,14.40
2023-01-12T10:48:49.967Z,9.90
2023-01-12T10:51:30.513Z,12.60
2023-01-12T10:54:23.278Z,11.70
2023-01-12T10:56:59.177Z,12.50
2023-01-12T10:59:54.760Z,9.90
2023-01-12T11:02:26.435Z,9.10
2023-01-12T11:04:57.934Z,8.30
2023-01-12T11:07:50.377Z,8.80
2023-01-12T11:10:21.247Z,9.70
2023-01-12T11:12:59.106Z,10.50
2023-01-12T11:15:29.156Z,9.50
2023-01-12T11:18:03.162Z,8.40
2023-01-12T11:20:34.522Z,11.10
2023-01-12T11:23:05.270Z,9.40
2023-01-12T11:25:40.234Z,10.70
2023-01-12T11:28:39.613Z,9.80
2023-01-12T11:31:19.853Z,9.50
2023-01-12T11:33:55.469Z,8.40
2023-01-12T11:36:29.403Z,11.10
2023-01-12T11:39:06.684Z,9.70
2023-01-12T11:42:16.141Z,10.40
2023-01-12T11:45:06.133Z,11.60
2023-01-12T11:47:46.336Z,10.80
2023-01-12T11:50:21.853Z,11.00
2023-01-12T11:52:50.579Z,11.40
2023-01-12T11:55:42.414Z,15.20
2023-01-12T11:58:33.823Z,11.20
2023-01-12T12:01:26.803Z,10.00
2023-01-12T12:04:08.675Z,9.90
2023-01-12T12:07:02.177Z,9.90
2023-01-12T12:09:58.472Z,8.00
2023-01-12T12:12:41.908Z,8.40
2023-01-12T12:15:25.438Z,11.20
2023-01-12T12:18:14.479Z,9.10
2023-01-12T12:20:43.087Z,11.20
2023-01-12T12:23:36.839Z,12.30
2023-01-12T12:26:38.477Z,10.90
2023-01-12T12:29:21.335Z,11.60
2023-01-12T12:32:15.953Z,10.40
2023-01-12T12:34:56.410Z,12.60
2023-01-12T12:37:35.401Z,11.20
2023-01-12T12:40:30.711Z,13.30
2023-01-12T12:43:37.916Z,9.00
2023-01-12T12:46:21.277Z,9.70
2023-01-12T12:49:12.982Z,10.20
2023-01-12T12:51:41.849Z,9.10
2023-01-12T12:54:18.324Z,9.00
2023-01-12T12:56:47.850Z,10.10
2023-01-12T12:59:34.543Z,7.80
2023-01-12T13:02:53.259Z,12.10
2023-01-12T13:05:47.312Z,14.40
2023-01-12T13:08:27.403Z,8.60
2023-01-12T13:10:58.959Z,8.90
2023-01-12T13:13:29.232Z,14.60
2023-01-12T13:16:24.145Z,12.60
2023-01-12T13:18:52.385Z,10.60
2023-01-12T13:21:26.820Z,9.20
2023-01-12T13:24:23.663Z,11.20
2023-01-12T13:26:53.981Z,11.40
2023-01-12T13:29:28.175Z,11.40
2023-01-12T13:35:03.517Z,10.30
2023-01-12T13:37:49.071Z,9.60
2023-01-12T13:40:18.949Z,10.40
2023-01-12T13:43:08.174Z,8.80
2023-01-12T13:45:37.307Z,10.70
2023-01-12T13:48:07.638Z,10.30
2023-01-12T13:50:37.138Z,12.70
2023-01-12T13:53:28.837Z,13.10
2023-01-12T13:56:00.002Z,12.50
2023-01-12T13:58:41.310Z,9.10
2023-01-12T14:01:24.175Z,9.10
2023-01-12T14:04:05.049Z,11.20
2023-01-12T14:07:03.659Z,13.20
2023-01-12T14:09:50.628Z,12.70
2023-01-12T14:12:37.896Z,10.20
2023-01-12T14:15:42.025Z,9.70
2023-01-12T14:18:15.084Z,11.40
2023-01-12T14:20:52.089Z,9.30
2023-01-12T14:23:21.763Z,14.00
2023-01-12T14:26:14.706Z,9.50
2023-01-12T14:29:01.269Z,10.80
2023-01-12T14:31:53.321Z,11.00
2023-01-12T14:34:35.397Z,13.00
2023-01-12T14:37:08.067Z,11.50
2023-01-12T14:39:56.103Z,14.90
2023-01-12T14:42:45.368Z,14.10
2023-01-12T14:45:50.802Z,11.50
2023-01-12T14:48:30.850Z,9.40
2023-01-12T14:51:14.386Z,13.70
2023-01-12T14:53:49.091Z,11.30
2023-01-12T14:56:35.328Z,15.10
2023-01-12T14:59:16.921Z,11.10
2023-01-12T15:01:45.022Z,12.70
2023-01-12T15:04:21.014Z,7.70
2023-01-12T15:07:01.413Z,14.30
2023-01-12T15:09:33.612Z,9.50
2023-01-12T15:12:41.989Z,12.10
2023-01-12T15:15:49.890Z,12.90
2023-01-12T15:18:38.139Z,10.10
2023-01-12T15:21:25.012Z,9.40
2023-01-12T15:24:11.865Z,9.70
2023-01-12T15:26:40.648Z,9.80
2023-01-12T15:29:09.029Z,12.70
2023-01-12T15:31:39.009Z,10.10
2023-01-12T15:34:10.792Z,11.40
2023-01-12T15:36:38.875Z,10.40
2023-01-12T15:39:06.940Z,10.10
2023-01-12T15:41:54.982Z,12.10
2023-01-12T15:44:23.935Z,9.90
2023-01-12T15:46:52.938Z,10.50
2023-01-12T15:49:21.666Z,10.80
2023-01-12T15:51:51.060Z,9.80
2023-01-12T15:54:20.692Z,11.40
2023-01-12T15:56:48.836Z,12.90
2023-01-12T15:59:16.854Z,13.20
2023-01-12T16:01:48.133Z,14.70
2023-01-12T16:04:42.538Z,11.90
2023-01-12T16:07:11.861Z,11.80
2023-01-12T16:09:41.363Z,12.30
2023-01-12T16:12:10.510Z,10.50
2023-01-12T16:14:39.253Z,9.60
2023-01-12T16:17:07.400Z,9.30
2023-01-12T16:19:41.519Z,11.60
2023-01-12T16:22:17.975Z,9.30
2023-01-12T16:24:46.473Z,10.80
2023-01-12T16:27:15.267Z,9.60
2023-01-12T16:29:43.729Z,9.00
2023-01-12T16:32:12.627Z,11.70
2023-01-12T16:34:41.323Z,8.50
2023-01-12T16:37:19.121Z,11.90
2023-01-12T16:40:06.661Z,10.50
2023-01-12T16:42:34.648Z,8.60
2023-01-12T16:45:03.538Z,10.00
2023-01-12T16:47:31.977Z,9.00
2023-01-12T16:50:00.169Z,7.40
2023-01-12T16:52:28.431Z,9.60
2023-01-12T16:54:56.422Z,10.80
2023-01-12T16:57:24.572Z,10.20
2023-01-12T16:59:52.635Z,8.80
2023-01-12T17:02:21.397Z,12.80
2023-01-12T17:04:52.550Z,10.90
2023-01-12T17:07:21.152Z,9.90
2023-01-12T17:10:08.853Z,9.70
2023-01-12T17:12:37.158Z,9.50
2023-01-12T17:15:06.068Z,10.00
2023-01-12T17:17:35.858Z,7.40
2023-01-12T17:20:05.373Z,9.50
2023-01-12T17:22:34.437Z,10.50
2023-01-12T17:25:03.160Z,11.60
2023-01-12T17:27:31.320Z,13.40
2023-01-12T17:29:59.592Z,10.40
2023-01-12T17:32:27.837Z,11.20
2023-01-12T17:34:56.048Z,8.00
2023-01-12T17:37:43.190Z,9.60
2023-01-12T17:40:12.067Z,10.80
2023-01-12T17:43:09.814Z,10.60
2023-01-12T17:45:45.330Z,9.80
2023-01-12T17:48:19.690Z,6.60
2023-01-12T17:50:48.476Z,8.40
2023-01-12T17:53:19.159Z,9.20
2023-01-12T17:55:49.204Z,12.10
2023-01-12T17:58:37.274Z,7.90
2023-01-12T18:01:14.576Z,7.80
2023-01-12T18:03:43.159Z,8.40
2023-01-12T18:06:15.049Z,8.90
2023-01-12T18:08:48.490Z,7.50
2023-01-12T18:11:19.536Z,8.10
2023-01-12T18:13:48.178Z,8.50
2023-01-12T18:16:17.013Z,10.50
2023-01-12T18:18:45.486Z,8.10
2023-01-12T18:21:16.198Z,8.20
2023-01-12T18:23:44.859Z,6.90
2023-01-12T18:26:16.345Z,8.10
2023-01-12T18:28:45.250Z,11.80
2023-01-12T18:31:16.267Z,15.00
2023-01-12T18:33:46.312Z,8.80
2023-01-12T18:36:17.953Z,9.10
2023-01-12T18:38:46.244Z,7.50
2023-01-12T18:41:54.468Z,8.20
2023-01-12T18:44:24.337Z,8.20
2023-01-12T18:47:16.901Z,7.90
2023-01-12T18:49:49.420Z,10.40
2023-01-12T18:52:55.137Z,6.80
2023-01-12T18:55:41.989Z,5.90
2023-01-12T18:58:10.222Z,6.00
2023-01-12T19:00:38.622Z,5.40
2023-01-12T19:03:26.230Z,8.00
2023-01-12T19:06:22.209Z,6.40
2023-01-12T19:09:10.822Z,7.40
2023-01-12T19:11:59.095Z,9.70
2023-01-12T19:15:05.736Z,11.60
2023-01-12T19:17:37.222Z,11.60
2023-01-12T19:20:08.970Z,8.90
2023-01-12T19:22:57.484Z,9.50
2023-01-12T19:25:46.056Z,6.20
2023-01-12T19:28:32.790Z,7.90
2023-01-12T19:31:20.727Z,7.80
2023-01-12T19:33:49.082Z,9.10
2023-01-12T19:36:17.343Z,6.20
2023-01-12T19:38:50.717Z,8.30
2023-01-12T19:41:39.394Z,6.50
2023-01-12T19:44:08.280Z,7.30
2023-01-12T19:46:36.465Z,7.90
2023-01-12T19:49:23.803Z,5.70
2023-01-12T19:51:51.948Z,10.00
2023-01-12T19:54:20.024Z,6.30
2023-01-12T19:56:49.027Z,4.60
2023-01-12T19:59:17.201Z,8.00
2023-01-12T20:01:45.359Z,6.30
2023-01-12T20:04:14.050Z,8.20
2023-01-12T20:21:11.632Z,6.10
2023-01-12T20:23:39.783Z,4.30
2023-01-12T20:26:09.160Z,6.50
2023-01-12T20:28:37.662Z,6.70
2023-01-12T20:31:10.631Z,4.70
2023-01-12T20:33:39.374Z,7.30
2023-01-12T20:36:17.321Z,5.30
2023-01-12T20:38:47.354Z,6.90
2023-01-12T20:41:15.512Z,7.10
2023-01-12T20:43:43.930Z,7.40
2023-01-12T20:46:14.141Z,6.30
2023-01-12T20:48:44.649Z,6.80
2023-01-12T20:51:18.428Z,5.90
2023-01-12T20:53:46.667Z,6.40
2023-01-12T20:56:14.803Z,5.70
2023-01-12T20:58:43.322Z,7.00
2023-01-12T21:01:13.824Z,8.40
2023-01-12T21:03:43.366Z,9.00
2023-01-12T21:06:14.429Z,6.10
2023-01-12T21:08:46.416Z,9.20
2023-01-12T21:11:17.245Z,6.10
2023-01-12T21:13:49.537Z,7.80
2023-01-12T21:16:19.502Z,4.90
2023-01-12T21:18:48.338Z,7.10
2023-01-12T21:21:16.923Z,9.30
2023-01-12T21:23:45.294Z,6.30
2023-01-12T21:26:13.760Z,5.50
2023-01-12T21:29:01.995Z,5.90
2023-01-12T21:31:48.656Z,9.30
2023-01-12T21:34:43.733Z,7.00
2023-01-12T21:37:12.516Z,7.20
2023-01-12T21:39:40.691Z,5.70
2023-01-12T21:42:27.211Z,10.30
2023-01-12T21:44:55.366Z,5.70
2023-01-12T21:47:23.685Z,6.90
2023-01-12T21:49:52.025Z,7.10
2023-01-12T21:52:20.302Z,6.10
2023-01-12T21:54:48.475Z,6.10
2023-01-12T21:57:16.646Z,4.50
2023-01-12T21:59:44.819Z,6.10
2023-01-12T22:02:13.250Z,5.40
2023-01-12T22:04:41.467Z,5.20
2023-01-12T22:07:09.546Z,6.20
2023-01-12T22:09:37.821Z,4.90
2023-01-12T22:12:06.507Z,4.50
2023-01-12T22:14:34.618Z,4.70
2023-01-12T22:17:02.628Z,6.90
2023-01-12T22:19:31.536Z,4.20
2023-01-12T22:22:18.355Z,4.10
2023-01-12T22:24:46.735Z,5.20
2023-01-12T22:27:14.963Z,6.30
2023-01-12T22:30:02.838Z,6.70
2023-01-12T22:32:31.714Z,6.30
2023-01-12T22:35:00.131Z,6.40
2023-01-12T22:37:29.309Z,5.00
2023-01-12T22:39:57.477Z,5.70
2023-01-12T22:42:45.672Z,7.00
2023-01-12T22:45:14.168Z,6.80
2023-01-12T22:47:47.983Z,6.80
2023-01-12T22:50:16.822Z,5.70
2023-01-12T22:53:03.617Z,7.60
2023-01-12T22:55:32.006Z,4.30
2023-01-12T22:58:00.369Z,6.90
2023-01-12T23:00:28.415Z,6.40
2023-01-12T23:03:03.098Z,8.10
2023-01-12T23:05:35.977Z,5.80
2023-01-12T23:08:11.158Z,5.70
2023-01-12T23:10:39.460Z,5.60
2023-01-12T23:13:25.756Z,8.00
2023-01-12T23:15:58.294Z,8.30
2023-01-12T23:18:29.343Z,7.60
2023-01-12T23:21:09.998Z,6.40
2023-01-12T23:23:39.087Z,7.40
2023-01-12T23:26:31.373Z,5.90
2023-01-12T23:29:03.114Z,5.40
2023-01-12T23:31:33.739Z,6.50
2023-01-12T23:34:02.245Z,5.40
2023-01-12T23:36:31.173Z,7.60
2023-01-12T23:39:02.069Z,8.50
2023-01-12T23:41:33.317Z,6.90
2023-01-12T23:44:04.522Z,6.50
2023-01-12T23:46:43.111Z,7.30
2023-01-12T23:49:11.560Z,9.10
2023-01-12T23:51:40.666Z,5.90
2023-01-12T23:54:18.792Z,5.30
2023-01-12T23:56:52.379Z,8.70
2023-01-12T23:59:21.045Z,7.40
